createdAt,value
2019-02-07T00:00:44.072Z,26.97
2019-02-07T00:03:11.488Z,29.87
2019-02-07T00:05:38.991Z,27.60
2019-02-07T00:08:06.856Z,33.30
2019-02-07T00:10:35.033Z,29.57
2019-02-07T00:13:02.517Z,30.53
2019-02-07T00:15:30.417Z,32.50
2019-02-07T00:17:57.866Z,29.07
2019-02-07T00:20:25.449Z,31.80
2019-02-07T00:22:52.815Z,31.03
2019-02-07T00:25:21.368Z,29.03
2019-02-07T00:27:49.486Z,31.87
2019-02-07T00:30:17.052Z,26.77
2019-02-07T00:32:44.712Z,26.47
2019-02-07T00:35:12.730Z,29.67
2019-02-07T00:37:40.264Z,27.57
2019-02-07T00:40:10.795Z,31.23
2019-02-07T00:42:38.185Z,29.33
2019-02-07T00:45:09.028Z,31.67
2019-02-07T00:47:36.529Z,30.03
2019-02-07T00:50:05.207Z,26.30
2019-02-07T00:52:32.651Z,31.37
2019-02-07T00:55:00.372Z,34.93
2019-02-07T00:57:27.811Z,30.50
2019-02-07T00:59:55.684Z,27.83
2019-02-07T01:02:23.127Z,29.33
2019-02-07T01:04:50.829Z,29.03
2019-02-07T01:07:18.384Z,23.30
2019-02-07T01:09:47.793Z,26.73
2019-02-07T01:12:15.239Z,26.83
2019-02-07T01:14:42.743Z,23.17
2019-02-07T01:17:10.963Z,28.53
2019-02-07T01:19:39.131Z,26.83
2019-02-07T01:22:06.663Z,28.90
2019-02-07T01:24:34.245Z,31.10
2019-02-07T01:27:02.115Z,38.03
2019-02-07T01:29:29.571Z,22.17
2019-02-07T01:31:57.176Z,26.43
2019-02-07T01:34:24.788Z,30.07
2019-02-07T01:36:52.297Z,28.60
2019-02-07T01:39:20.051Z,27.23
2019-02-07T01:41:47.590Z,32.10
2019-02-07T01:44:14.953Z,28.13
2019-02-07T01:46:42.713Z,29.60
2019-02-07T01:49:10.452Z,25.10
2019-02-07T01:51:38.334Z,26.73
2019-02-07T01:54:05.988Z,27.87
2019-02-07T01:56:33.347Z,27.73
2019-02-07T01:59:00.823Z,24.20
2019-02-07T02:01:28.369Z,26.63
2019-02-07T02:03:56.060Z,30.23
2019-02-07T02:06:23.643Z,23.03
2019-02-07T02:08:51.691Z,26.57
2019-02-07T02:11:19.419Z,27.27
2019-02-07T02:13:47.380Z,25.87
2019-02-07T02:16:14.845Z,27.70
2019-02-07T02:18:42.164Z,26.67
2019-02-07T02:21:09.511Z,25.93
2019-02-07T02:23:36.993Z,25.57
2019-02-07T02:26:05.598Z,25.10
2019-02-07T02:28:33.714Z,27.80
2019-02-07T02:31:01.410Z,30.73
2019-02-07T02:33:28.836Z,26.07
2019-02-07T02:35:56.323Z,25.70
2019-02-07T02:38:23.959Z,25.27
2019-02-07T02:40:52.044Z,25.10
2019-02-07T02:43:20.147Z,25.07
2019-02-07T02:45:47.774Z,27.87
2019-02-07T02:48:15.203Z,27.20
2019-02-07T02:50:42.735Z,25.50
2019-02-07T02:53:10.276Z,20.60
2019-02-07T02:55:40.005Z,32.83
2019-02-07T02:58:08.223Z,24.37
2019-02-07T03:01:01.727Z,27.20
2019-02-07T03:03:37.253Z,24.33
2019-02-07T03:06:12.297Z,28.87
2019-02-07T03:08:48.213Z,27.27
2019-02-07T03:11:23.769Z,25.03
2019-02-07T03:14:15.919Z,25.47
2019-02-07T03:17:06.247Z,24.47
2019-02-07T03:19:53.340Z,34.27
2019-02-07T03:22:39.412Z,26.57
2019-02-07T03:25:39.050Z,24.83
2019-02-07T03:28:22.499Z,24.73
2019-02-07T03:31:08.530Z,25.43
2019-02-07T03:34:04.380Z,22.53
2019-02-07T03:36:48.214Z,26.57
2019-02-07T03:39:35.239Z,26.73
2019-02-07T03:42:21.116Z,19.27
2019-02-07T03:45:06.931Z,29.83
2019-02-07T03:47:45.130Z,23.23
2019-02-07T03:50:30.877Z,30.27
2019-02-07T03:53:17.132Z,25.87
2019-02-07T03:56:19.924Z,25.83
2019-02-07T03:59:05.618Z,29.97
2019-02-07T04:01:52.721Z,21.97
2019-02-07T04:04:36.211Z,24.00
2019-02-07T04:07:18.271Z,25.57
2019-02-07T04:10:05.262Z,26.80
2019-02-07T04:13:01.822Z,23.07
2019-02-07T04:16:14.675Z,25.90
2019-02-07T04:18:55.346Z,24.37
2019-02-07T04:21:52.569Z,22.80
2019-02-07T04:24:38.722Z,23.20
2019-02-07T04:27:14.024Z,30.67
2019-02-07T04:30:19.276Z,23.30
2019-02-07T04:33:12.213Z,21.50
2019-02-07T04:36:01.966Z,23.33
2019-02-07T04:38:42.820Z,27.37
2019-02-07T04:41:34.945Z,20.83
2019-02-07T04:44:22.520Z,22.93
2019-02-07T04:47:09.558Z,26.53
2019-02-07T04:50:02.979Z,23.03
2019-02-07T04:52:41.215Z,24.50
2019-02-07T04:55:31.525Z,21.60
2019-02-07T04:58:16.184Z,21.07
2019-02-07T05:01:00.974Z,23.03
2019-02-07T05:03:46.853Z,25.97
2019-02-07T05:06:49.236Z,22.53
2019-02-07T05:09:47.859Z,21.83
2019-02-07T05:12:23.703Z,26.30
2019-02-07T05:15:01.856Z,26.33
2019-02-07T05:17:47.930Z,22.10
2019-02-07T05:20:33.595Z,30.13
2019-02-07T05:23:24.188Z,23.67
2019-02-07T05:26:13.829Z,18.97
2019-02-07T05:29:00.011Z,22.60
2019-02-07T05:31:50.051Z,24.20
2019-02-07T05:34:28.093Z,32.87
2019-02-07T05:37:17.928Z,24.23
2019-02-07T05:40:03.715Z,25.60
2019-02-07T05:42:49.745Z,21.27
2019-02-07T05:45:36.737Z,24.73
2019-02-07T05:48:26.720Z,28.70
2019-02-07T05:51:14.181Z,28.70
2019-02-07T05:54:07.326Z,24.00
2019-02-07T05:56:52.917Z,26.03
2019-02-07T05:59:58.516Z,19.87
2019-02-07T06:02:48.224Z,21.43
2019-02-07T06:05:31.730Z,22.60
2019-02-07T06:08:22.161Z,23.73
2019-02-07T06:10:58.688Z,23.20
2019-02-07T06:13:44.591Z,22.83
2019-02-07T06:16:30.293Z,25.77
2019-02-07T06:19:32.999Z,30.10
2019-02-07T06:22:26.000Z,26.77
2019-02-07T06:25:22.055Z,26.53
2019-02-07T06:28:07.567Z,31.97
2019-02-07T06:30:53.327Z,41.47
2019-02-07T06:33:43.357Z,37.27
2019-02-07T06:36:30.415Z,28.30
2019-02-07T06:39:28.399Z,32.73
2019-02-07T06:42:04.963Z,34.83
2019-02-07T06:44:52.401Z,26.93
2019-02-07T06:47:38.939Z,22.33
2019-02-07T06:50:32.394Z,25.03
2019-02-07T06:53:11.279Z,24.77
2019-02-07T06:56:04.485Z,25.23
2019-02-07T06:58:47.586Z,25.23
2019-02-07T07:01:25.769Z,32.73
2019-02-07T07:04:15.768Z,29.83
2019-02-07T07:07:08.542Z,27.20
2019-02-07T07:10:01.827Z,23.50
2019-02-07T07:12:47.594Z,28.93
2019-02-07T07:15:40.213Z,25.33
2019-02-07T07:18:21.723Z,21.83
2019-02-07T07:21:08.719Z,24.53
2019-02-07T07:23:54.318Z,24.13
2019-02-07T07:26:59.315Z,23.23
2019-02-07T07:29:35.061Z,21.47
2019-02-07T07:32:17.957Z,19.57
2019-02-07T07:35:10.139Z,29.80
2019-02-07T07:38:00.216Z,26.90
2019-02-07T07:40:45.557Z,28.60
2019-02-07T07:43:32.677Z,33.17
2019-02-07T07:46:18.212Z,32.70
2019-02-07T07:48:55.595Z,26.87
2019-02-07T07:51:45.329Z,29.63
2019-02-07T07:54:32.934Z,33.97
2019-02-07T07:57:25.885Z,27.60
2019-02-07T08:00:20.488Z,32.40
2019-02-07T08:03:06.506Z,27.47
2019-02-07T08:05:59.931Z,31.10
2019-02-07T08:08:43.986Z,27.93
2019-02-07T08:11:39.924Z,28.67
2019-02-07T08:14:25.910Z,36.90
2019-02-07T08:17:11.699Z,24.03
2019-02-07T08:20:02.124Z,26.77
2019-02-07T08:23:09.039Z,24.93
2019-02-07T08:25:56.130Z,25.70
2019-02-07T08:28:46.142Z,26.60
2019-02-07T08:31:45.259Z,24.13
2019-02-07T08:34:28.189Z,25.10
2019-02-07T08:37:07.546Z,29.53
2019-02-07T08:40:12.607Z,25.17
2019-02-07T08:42:59.644Z,36.73
2019-02-07T08:45:58.682Z,31.17
2019-02-07T08:48:52.755Z,26.67
2019-02-07T08:51:40.265Z,29.73
2019-02-07T08:54:33.256Z,32.87
2019-02-07T08:57:20.806Z,20.60
2019-02-07T09:00:26.503Z,24.57
2019-02-07T09:03:25.621Z,27.93
2019-02-07T09:06:01.059Z,26.17
2019-02-07T09:08:39.745Z,21.67
2019-02-07T09:11:29.891Z,23.63
2019-02-07T09:14:15.444Z,24.97
2019-02-07T09:17:20.867Z,32.30
2019-02-07T09:20:13.908Z,31.67
2019-02-07T09:23:10.495Z,19.60
2019-02-07T09:26:06.503Z,26.00
2019-02-07T09:29:05.808Z,25.40
2019-02-07T09:31:51.571Z,28.53
2019-02-07T09:34:37.167Z,32.50
2019-02-07T09:37:32.971Z,34.73
2019-02-07T09:40:12.029Z,30.60
2019-02-07T09:42:48.338Z,27.90
2019-02-07T09:45:36.960Z,26.77
2019-02-07T09:48:27.052Z,26.53
2019-02-07T09:51:01.438Z,26.73
2019-02-07T09:53:55.856Z,24.70
2019-02-07T09:56:41.805Z,25.40
2019-02-07T09:59:24.602Z,27.50
2019-02-07T10:02:16.384Z,29.37
2019-02-07T10:04:50.698Z,25.03
2019-02-07T10:07:52.812Z,33.77
2019-02-07T10:10:30.771Z,22.97
2019-02-07T10:13:20.697Z,29.90
2019-02-07T10:15:57.453Z,24.53
2019-02-07T10:18:56.849Z,24.53
2019-02-07T10:21:56.126Z,26.40
2019-02-07T10:24:41.995Z,25.87
2019-02-07T10:27:24.467Z,25.77
2019-02-07T10:30:08.099Z,20.13
2019-02-07T10:32:44.222Z,26.83
2019-02-07T10:35:29.348Z,23.77
2019-02-07T10:38:09.891Z,20.77
2019-02-07T10:40:49.324Z,20.53
2019-02-07T10:43:36.341Z,20.47
2019-02-07T10:46:29.232Z,19.20
2019-02-07T10:49:15.157Z,27.90
2019-02-07T10:52:10.059Z,18.17
2019-02-07T10:55:03.294Z,25.67
2019-02-07T10:57:55.203Z,26.93
2019-02-07T11:00:41.544Z,21.07
2019-02-07T11:03:28.700Z,20.47
2019-02-07T11:06:24.587Z,25.03
2019-02-07T11:09:07.588Z,19.53
2019-02-07T11:12:07.158Z,23.23
2019-02-07T11:14:45.083Z,28.37
2019-02-07T11:17:37.889Z,20.57
2019-02-07T11:20:28.598Z,25.13
2019-02-07T11:23:21.698Z,21.47
2019-02-07T11:26:23.852Z,27.27
2019-02-07T11:29:04.844Z,23.20
2019-02-07T11:31:58.428Z,27.57
2019-02-07T11:34:38.661Z,28.23
2019-02-07T11:37:44.264Z,26.97
2019-02-07T11:40:31.485Z,32.03
2019-02-07T11:43:12.010Z,25.93
2019-02-07T11:45:49.980Z,25.63
2019-02-07T11:48:29.043Z,24.87
2019-02-07T11:51:12.995Z,29.27
2019-02-07T11:53:48.683Z,26.73
2019-02-07T11:56:31.762Z,26.33
2019-02-07T11:59:08.407Z,29.73
2019-02-07T12:01:54.464Z,26.47
2019-02-07T12:04:47.542Z,27.67
2019-02-07T12:07:30.358Z,28.37
2019-02-07T12:10:13.229Z,26.93
2019-02-07T12:12:58.997Z,27.97
2019-02-07T12:15:55.090Z,22.57
2019-02-07T12:18:48.136Z,22.47
2019-02-07T12:21:32.843Z,20.37
2019-02-07T12:24:23.375Z,23.43
2019-02-07T12:27:10.384Z,20.77
2019-02-07T12:29:56.776Z,16.67
2019-02-07T12:32:30.311Z,17.37
2019-02-07T12:35:06.055Z,20.73
2019-02-07T12:37:41.218Z,22.67
2019-02-07T12:40:28.193Z,18.63
2019-02-07T12:43:21.394Z,22.03
2019-02-07T12:46:07.519Z,20.13
2019-02-07T12:48:57.979Z,19.70
2019-02-07T12:51:43.729Z,22.73
2019-02-07T12:54:34.695Z,16.87
2019-02-07T12:57:25.117Z,17.33
2019-02-07T13:00:10.974Z,16.53
2019-02-07T13:02:51.247Z,18.77
2019-02-07T13:05:37.276Z,20.33
2019-02-07T13:08:30.795Z,14.60
2019-02-07T13:11:08.467Z,18.47
2019-02-07T13:14:04.672Z,14.23
2019-02-07T13:17:09.967Z,17.23
2019-02-07T13:20:09.252Z,12.40
2019-02-07T13:23:14.745Z,13.23
2019-02-07T13:25:52.228Z,12.63
2019-02-07T13:28:54.336Z,15.97
2019-02-07T13:31:42.287Z,13.37
2019-02-07T13:34:23.672Z,12.80
2019-02-07T13:37:16.749Z,11.07
2019-02-07T13:40:19.111Z,17.37
2019-02-07T13:43:06.758Z,13.47
2019-02-07T13:45:59.527Z,12.67
2019-02-07T13:48:45.522Z,13.63
2019-02-07T13:51:31.223Z,15.23
2019-02-07T13:54:23.537Z,13.53
2019-02-07T13:57:10.980Z,11.27
2019-02-07T13:59:58.088Z,11.27
2019-02-07T14:02:40.607Z,11.37
2019-02-07T14:05:23.719Z,12.77
2019-02-07T14:08:10.719Z,11.63
2019-02-07T14:11:13.234Z,8.77
2019-02-07T14:13:59.052Z,12.07
2019-02-07T14:16:45.113Z,9.60
2019-02-07T14:19:25.448Z,8.90
2019-02-07T14:22:11.261Z,6.97
2019-02-07T14:24:49.260Z,9.90
2019-02-07T14:27:29.275Z,8.60
2019-02-07T14:30:19.391Z,23.27
2019-02-07T14:33:21.820Z,9.50
2019-02-07T14:36:08.771Z,7.97
2019-02-07T14:38:56.624Z,7.77
2019-02-07T14:41:44.698Z,45.03
2019-02-07T14:44:46.814Z,9.97
2019-02-07T14:47:14.453Z,14.80
2019-02-07T14:49:41.958Z,24.57
2019-02-07T14:52:10.230Z,22.97
2019-02-07T14:54:37.790Z,12.77
2019-02-07T14:57:05.143Z,20.70
2019-02-07T14:59:32.912Z,14.90
2019-02-07T15:02:00.367Z,17.63
2019-02-07T15:04:27.901Z,11.97
2019-02-07T15:06:55.465Z,11.73
2019-02-07T15:09:22.986Z,8.13
2019-02-07T15:11:50.607Z,11.03
2019-02-07T15:14:18.281Z,10.87
2019-02-07T15:16:45.939Z,8.27
2019-02-07T15:19:13.417Z,10.80
2019-02-07T15:21:40.962Z,9.87
2019-02-07T15:24:08.990Z,12.50
2019-02-07T15:26:36.604Z,15.37
2019-02-07T15:29:04.966Z,12.93
2019-02-07T15:31:32.731Z,11.07
2019-02-07T15:34:00.211Z,14.57
2019-02-07T15:36:27.926Z,19.80
2019-02-07T15:38:55.544Z,14.77
2019-02-07T15:41:24.483Z,9.47
2019-02-07T15:43:51.956Z,11.30
2019-02-07T15:46:19.539Z,6.43
2019-02-07T15:48:47.059Z,8.50
2019-02-07T15:51:15.169Z,13.27
2019-02-07T15:53:42.918Z,7.57
2019-02-07T15:56:10.468Z,5.77
2019-02-07T15:58:49.432Z,8.90
2019-02-07T16:01:22.798Z,6.97
2019-02-07T16:04:00.689Z,10.00
2019-02-07T16:06:28.326Z,15.37
2019-02-07T16:08:56.266Z,11.67
2019-02-07T16:11:23.902Z,9.50
2019-02-07T16:13:52.751Z,11.43
2019-02-07T16:16:20.353Z,7.07
2019-02-07T16:18:48.403Z,9.43
2019-02-07T16:21:15.916Z,10.60
2019-02-07T16:23:43.532Z,18.43
2019-02-07T16:26:11.286Z,12.27
2019-02-07T16:28:38.734Z,9.97
2019-02-07T16:31:06.218Z,12.33
2019-02-07T16:33:33.733Z,14.33
2019-02-07T16:36:01.342Z,11.10
2019-02-07T16:38:28.843Z,19.20
2019-02-07T16:40:56.362Z,18.40
2019-02-07T16:43:24.170Z,14.77
2019-02-07T16:45:52.025Z,13.97
2019-02-07T16:48:19.683Z,18.50
2019-02-07T16:50:47.304Z,10.10
2019-02-07T16:53:14.895Z,8.07
2019-02-07T16:55:42.451Z,9.07
2019-02-07T16:58:09.994Z,8.20
2019-02-07T17:00:38.016Z,7.47
2019-02-07T17:03:06.153Z,10.43
2019-02-07T17:05:33.811Z,9.47
2019-02-07T17:08:01.471Z,8.40
2019-02-07T17:10:30.652Z,11.53
2019-02-07T17:12:58.193Z,10.67
2019-02-07T17:15:25.676Z,10.73
2019-02-07T17:17:53.615Z,8.90
2019-02-07T17:20:24.060Z,10.40
2019-02-07T17:22:51.739Z,11.03
2019-02-07T17:25:19.332Z,13.47
2019-02-07T17:27:47.179Z,15.13
2019-02-07T17:30:15.593Z,13.03
2019-02-07T17:32:43.292Z,14.30
2019-02-07T17:35:11.791Z,12.60
2019-02-07T17:37:39.315Z,16.37
2019-02-07T17:40:10.486Z,15.23
2019-02-07T17:42:38.144Z,12.80
2019-02-07T17:45:06.964Z,16.83
2019-02-07T17:47:34.444Z,13.53
2019-02-07T17:50:04.291Z,16.27
2019-02-07T17:52:31.951Z,18.73
2019-02-07T17:54:59.456Z,19.63
2019-02-07T17:57:26.953Z,21.67
2019-02-07T17:59:54.546Z,19.57
2019-02-07T18:02:22.071Z,18.07
2019-02-07T18:04:49.645Z,18.80
2019-02-07T18:07:17.412Z,18.50
2019-02-07T18:09:45.343Z,19.87
2019-02-07T18:12:12.875Z,16.67
2019-02-07T18:14:40.955Z,15.90
2019-02-07T18:17:08.779Z,15.33
2019-02-07T18:19:36.322Z,20.07
2019-02-07T18:22:03.937Z,22.27
2019-02-07T18:24:31.458Z,24.80
2019-02-07T18:26:58.989Z,20.43
2019-02-07T18:29:26.740Z,19.73
2019-02-07T18:31:54.257Z,18.67
2019-02-07T18:34:21.773Z,17.87
2019-02-07T18:36:49.204Z,15.20
2019-02-07T18:39:16.743Z,25.90
2019-02-07T18:41:46.628Z,18.80
2019-02-07T18:44:14.231Z,17.73
2019-02-07T18:46:41.733Z,25.17
2019-02-07T18:49:09.125Z,18.70
2019-02-07T18:51:45.263Z,19.40
2019-02-07T18:54:07.006Z,17.97
2019-02-07T18:56:34.510Z,16.13
2019-02-07T18:59:03.631Z,16.03
2019-02-07T19:01:32.059Z,17.27
2019-02-07T19:04:00.765Z,18.83
2019-02-07T19:06:29.170Z,16.47
2019-02-07T19:08:57.712Z,12.33
2019-02-07T19:11:26.618Z,13.37
2019-02-07T19:13:55.005Z,12.63
2019-02-07T19:16:23.619Z,13.47
2019-02-07T19:18:52.961Z,12.50
2019-02-07T19:21:22.146Z,18.90
2019-02-07T19:23:50.388Z,11.43
2019-02-07T19:26:18.389Z,10.73
2019-02-07T19:28:46.883Z,15.90
2019-02-07T19:31:15.405Z,15.30
2019-02-07T19:33:44.479Z,17.17
2019-02-07T19:36:13.696Z,16.67
2019-02-07T19:38:42.168Z,20.90
2019-02-07T19:41:10.382Z,19.10
2019-02-07T19:43:39.097Z,13.80
2019-02-07T19:46:08.427Z,14.93
2019-02-07T19:48:36.910Z,16.10
2019-02-07T19:51:05.208Z,10.23
2019-02-07T19:53:33.500Z,9.33
2019-02-07T19:56:01.646Z,12.20
2019-02-07T19:58:30.596Z,10.13
2019-02-07T20:00:58.856Z,10.57
2019-02-07T20:03:28.407Z,7.60
2019-02-07T20:05:57.109Z,8.30
2019-02-07T20:08:26.334Z,7.20
2019-02-07T20:10:54.745Z,8.13
2019-02-07T20:13:23.147Z,11.17
2019-02-07T20:15:51.703Z,5.60
2019-02-07T20:18:20.262Z,6.73
2019-02-07T20:20:49.506Z,5.70
2019-02-07T20:23:18.201Z,8.33
2019-02-07T20:25:46.597Z,7.43
2019-02-07T20:28:14.871Z,7.30
2019-02-07T20:30:43.418Z,6.30
2019-02-07T20:33:12.108Z,5.90
2019-02-07T20:35:40.625Z,7.00
2019-02-07T20:38:10.105Z,7.23
2019-02-07T20:40:38.805Z,5.03
2019-02-07T20:43:08.252Z,8.07
2019-02-07T20:45:37.274Z,11.33
2019-02-07T20:48:06.941Z,8.33
2019-02-07T20:50:36.111Z,10.30
2019-02-07T20:53:05.090Z,8.57
2019-02-07T20:55:35.011Z,6.90
2019-02-07T20:58:04.299Z,8.03
2019-02-07T21:00:33.707Z,8.60
2019-02-07T21:03:03.341Z,7.43
2019-02-07T21:05:32.069Z,9.13
2019-02-07T21:08:00.181Z,11.47
2019-02-07T21:10:29.527Z,8.97
2019-02-07T21:12:58.944Z,9.50
2019-02-07T21:15:27.717Z,10.13
2019-02-07T21:17:55.931Z,14.50
2019-02-07T21:20:26.203Z,12.57
2019-02-07T21:22:55.181Z,10.40
2019-02-07T21:25:35.578Z,10.57
2019-02-07T21:28:04.808Z,8.37
2019-02-07T21:30:33.448Z,13.50
2019-02-07T21:33:01.875Z,20.20
2019-02-07T21:35:30.220Z,16.53
2019-02-07T21:37:58.398Z,16.37
2019-02-07T21:40:27.984Z,11.20
2019-02-07T21:42:57.418Z,18.03
2019-02-07T21:45:25.932Z,13.60
2019-02-07T21:47:54.464Z,11.77
2019-02-07T21:50:23.707Z,12.43
2019-02-07T21:52:52.746Z,11.13
2019-02-07T21:55:22.940Z,7.53
2019-02-07T21:57:51.179Z,9.43
2019-02-07T22:00:34.040Z,11.13
2019-02-07T22:03:04.273Z,10.23
2019-02-07T22:05:32.718Z,10.63
2019-02-07T22:08:01.154Z,11.97
2019-02-07T22:10:29.222Z,11.73
2019-02-07T22:12:57.854Z,16.03
2019-02-07T22:15:27.330Z,10.17
2019-02-07T22:17:57.023Z,9.43
2019-02-07T22:20:25.619Z,9.00
2019-02-07T22:22:54.084Z,10.57
2019-02-07T22:25:22.872Z,12.00
2019-02-07T22:27:51.364Z,10.97
2019-02-07T22:30:25.665Z,10.93
2019-02-07T22:32:54.448Z,9.03
2019-02-07T22:35:22.859Z,9.13
2019-02-07T22:37:50.820Z,11.80
2019-02-07T22:40:20.217Z,11.57
2019-02-07T22:42:48.646Z,14.20
2019-02-07T22:45:17.876Z,14.40
2019-02-07T22:47:46.732Z,10.93
2019-02-07T22:50:17.858Z,13.10
2019-02-07T22:52:46.095Z,13.57
2019-02-07T22:55:14.982Z,13.03
2019-02-07T22:57:43.305Z,15.50
2019-02-07T23:01:09.983Z,15.80
2019-02-07T23:03:40.671Z,15.23
2019-02-07T23:06:09.240Z,11.97
2019-02-07T23:08:37.418Z,14.23
2019-02-07T23:11:07.693Z,19.87
2019-02-07T23:13:36.095Z,20.07
2019-02-07T23:16:06.366Z,17.27
2019-02-07T23:18:34.904Z,14.03
2019-02-07T23:21:04.009Z,15.43
2019-02-07T23:23:32.203Z,16.70
2019-02-07T23:26:00.546Z,12.57
2019-02-07T23:28:29.406Z,15.20
2019-02-07T23:30:58.060Z,16.00
2019-02-07T23:33:26.192Z,14.40
2019-02-07T23:35:54.393Z,10.70
2019-02-07T23:38:23.058Z,9.70
2019-02-07T23:40:51.354Z,9.50
2019-02-07T23:43:19.539Z,12.37
2019-02-07T23:45:47.809Z,10.83
2019-02-07T23:48:16.173Z,13.40
2019-02-07T23:50:44.495Z,13.73
2019-02-07T23:53:14.707Z,14.60
2019-02-07T23:55:43.061Z,12.17
2019-02-07T23:58:11.282Z,9.60
